Time;durP1;ratioP1;P1;durP2;ratioP2;P2;SDS_P1;SDS_P2;PMS_P1;PMS_P2;Temp;Humidity;BMP_temperature;BMP_pressure;BME280_temperature;BME280_humidity;BME280_pressure;Samples;Min_cycle;Max_cycle;Signal;HPM_P1;HPM_P2
2023/12/05 00:01:34;;;;;;;;;;;13.10;71.80;;;;;;4959463;28;19906;-79
2023/12/05 00:03:59;;;;;;;;;;;13.10;71.80;;;;;;4959702;28;20286;-80
2023/12/05 00:06:25;;;;;;;;;;;13.10;71.90;;;;;;4959479;28;19906;-80
2023/12/05 00:08:50;;;;;;;;;;;13.10;71.90;;;;;;4959419;28;19910;-80
2023/12/05 00:11:16;;;;;;;;;;;13.10;71.90;;;;;;4959208;28;19910;-79
2023/12/05 00:13:41;;;;;;;;;;;13.10;71.90;;;;;;4959165;28;19909;-80
2023/12/05 00:16:08;;;;;;;;;;;13.10;71.90;;;;;;4959155;28;19907;-79
2023/12/05 00:18:33;;;;;;;;;;;13.10;71.90;;;;;;4959055;28;19910;-79
2023/12/05 00:20:59;;;;;;;;;;;13.10;72.00;;;;;;4959096;28;20393;-80
2023/12/05 00:23:24;;;;;;;;;;;13.10;72.00;;;;;;4976389;28;19906;-80
2023/12/05 00:25:50;;;;;;;;;;;13.10;72.00;;;;;;4959029;28;19913;-80
2023/12/05 00:28:15;;;;;;;;;;;13.10;72.00;;;;;;4958838;28;19906;-78
2023/12/05 00:30:41;;;;;;;;;;;13.10;72.00;;;;;;4958887;28;19910;-80
2023/12/05 00:33:06;;;;;;;;;;;13.10;72.00;;;;;;4958854;28;19910;-80
2023/12/05 00:35:32;;;;;;;;;;;13.10;72.00;;;;;;4959043;28;19909;-80
2023/12/05 00:37:58;;;;;;;;;;;13.00;72.00;;;;;;4959092;28;19913;-80
2023/12/05 00:40:29;;;;;;;;;;;13.10;72.10;;;;;;4958109;28;19907;-79
2023/12/05 00:42:58;;;;;;;;;;;13.10;72.10;;;;;;4958117;28;20669;-80
2023/12/05 00:45:23;;;;;;;;;;;13.10;72.00;;;;;;4958762;28;19912;-80
2023/12/05 00:47:52;;;;;;;;;;;13.10;72.10;;;;;;4958706;28;20282;-79
2023/12/05 00:50:18;;;;;;;;;;;13.10;72.10;;;;;;4958459;28;20306;-80
2023/12/05 00:52:43;;;;;;;;;;;13.10;72.10;;;;;;4975865;28;19914;-79
2023/12/05 00:55:09;;;;;;;;;;;13.00;72.10;;;;;;4958489;28;20000;-81
2023/12/05 00:57:34;;;;;;;;;;;13.00;72.10;;;;;;4958572;28;19953;-80
2023/12/05 00:59:59;;;;;;;;;;;13.00;72.10;;;;;;4958179;28;19906;-80
2023/12/05 01:02:25;;;;;;;;;;;13.00;72.20;;;;;;4958451;28;19913;-81
2023/12/05 01:04:50;;;;;;;;;;;13.10;72.20;;;;;;4958339;28;19910;-79
2023/12/05 01:07:16;;;;;;;;;;;13.00;72.10;;;;;;4958408;28;19906;-80
2023/12/05 01:09:41;;;;;;;;;;;13.00;72.20;;;;;;4958165;28;20375;-79
2023/12/05 01:12:10;;;;;;;;;;;13.00;72.20;;;;;;4958108;28;20048;-80
2023/12/05 01:14:36;;;;;;;;;;;13.00;72.20;;;;;;4958206;28;19906;-80
2023/12/05 01:17:01;;;;;;;;;;;13.00;72.20;;;;;;4958001;28;20386;-79
2023/12/05 01:19:27;;;;;;;;;;;13.00;72.20;;;;;;4957739;28;20351;-80
2023/12/05 01:21:52;;;;;;;;;;;13.10;72.30;;;;;;4958066;28;19907;-80
2023/12/05 01:24:17;;;;;;;;;;;13.10;72.30;;;;;;4958011;28;19906;-78
2023/12/05 01:26:43;;;;;;;;;;;13.00;72.20;;;;;;4957985;28;20263;-80
2023/12/05 01:29:09;;;;;;;;;;;13.10;72.30;;;;;;4957707;28;20397;-79
2023/12/05 01:31:34;;;;;;;;;;;13.00;72.20;;;;;;4957670;28;19916;-80
2023/12/05 01:33:59;;;;;;;;;;;13.00;72.30;;;;;;4957611;28;19910;-80
2023/12/05 01:36:26;;;;;;;;;;;13.00;72.20;;;;;;4957754;28;19906;-79
2023/12/05 01:38:52;;;;;;;;;;;13.00;72.20;;;;;;4957526;28;20374;-79
2023/12/05 01:41:18;;;;;;;;;;;13.00;72.20;;;;;;4957582;28;19906;-80
2023/12/05 01:43:44;;;;;;;;;;;13.00;72.30;;;;;;4957712;28;19917;-80
2023/12/05 01:46:10;;;;;;;;;;;13.10;72.30;;;;;;4957585;28;20001;-79
2023/12/05 01:48:36;;;;;;;;;;;13.00;72.30;;;;;;4957415;28;20302;-80
2023/12/05 01:51:02;;;;;;;;;;;13.00;72.30;;;;;;4974589;28;19906;-80
2023/12/05 01:53:29;;;;;;;;;;;13.00;72.30;;;;;;4957080;28;19916;-80
2023/12/05 01:55:54;;;;;;;;;;;13.00;72.30;;;;;;4957418;28;19913;-81
2023/12/05 01:58:20;;;;;;;;;;;13.00;72.30;;;;;;4957229;28;19940;-78
2023/12/05 02:00:45;;;;;;;;;;;13.00;72.40;;;;;;4957214;28;19906;-80
2023/12/05 02:03:12;;;;;;;;;;;13.00;72.40;;;;;;4957405;28;19968;-80
2023/12/05 02:05:37;;;;;;;;;;;13.00;72.40;;;;;;4957415;28;19906;-80
2023/12/05 02:08:03;;;;;;;;;;;12.90;72.40;;;;;;4957380;28;19913;-80
2023/12/05 02:10:28;;;;;;;;;;;13.00;72.40;;;;;;4956918;28;19906;-79
2023/12/05 02:13:06;;;;;;;;;;;13.00;72.40;;;;;;4956859;28;20057;-79
2023/12/05 02:15:32;;;;;;;;;;;13.00;72.40;;;;;;4953058;28;19991;-80
2023/12/05 02:18:08;;;;;;;;;;;13.00;72.40;;;;;;4967191;28;19906;-79
2023/12/05 02:20:40;;;;;;;;;;;13.00;72.40;;;;;;4956792;28;19906;-79
2023/12/05 02:23:24;;;;;;;;;;;13.00;72.50;;;;;;4974349;28;19997;-79
2023/12/05 02:25:52;;;;;;;;;;;13.00;72.50;;;;;;4957012;28;19906;-79
2023/12/05 02:28:18;;;;;;;;;;;13.00;72.60;;;;;;4956775;28;19964;-78
2023/12/05 02:30:43;;;;;;;;;;;13.00;72.60;;;;;;4956911;28;19906;-78
2023/12/05 02:33:09;;;;;;;;;;;13.00;72.50;;;;;;4974277;28;19910;-79
2023/12/05 02:35:34;;;;;;;;;;;12.90;72.60;;;;;;4957039;28;20283;-79
2023/12/05 02:38:10;;;;;;;;;;;13.00;72.60;;;;;;4955467;28;19906;-79
2023/12/05 02:40:50;;;;;;;;;;;13.00;72.60;;;;;;4953406;28;19906;-79
2023/12/05 02:43:18;;;;;;;;;;;13.00;72.60;;;;;;4953416;29;19949;-79
2023/12/05 02:45:46;;;;;;;;;;;13.00;72.60;;;;;;4953635;29;19906;-81
2023/12/05 02:48:12;;;;;;;;;;;13.00;72.60;;;;;;4953646;29;19910;-80
2023/12/05 02:50:37;;;;;;;;;;;12.90;72.60;;;;;;4953446;28;20767;-80
2023/12/05 02:53:03;;;;;;;;;;;12.90;72.70;;;;;;4953693;29;20005;-81
2023/12/05 02:55:28;;;;;;;;;;;12.90;72.70;;;;;;4953510;29;19913;-81
2023/12/05 02:57:53;;;;;;;;;;;12.90;72.70;;;;;;4953578;29;20749;-81
2023/12/05 03:00:19;;;;;;;;;;;13.00;72.70;;;;;;4953186;28;19907;-81
2023/12/05 03:02:45;;;;;;;;;;;13.00;72.70;;;;;;4954691;29;19953;-81
2023/12/05 03:05:10;;;;;;;;;;;12.90;72.60;;;;;;4955400;28;20339;-81
2023/12/05 03:07:36;;;;;;;;;;;13.00;73.20;;;;;;4957169;29;19997;-80
2023/12/05 03:10:03;;;;;;;;;;;12.90;72.70;;;;;;4957975;28;19910;-80
2023/12/05 03:12:28;;;;;;;;;;;12.90;72.80;;;;;;4957156;29;20013;-81
2023/12/05 03:14:54;;;;;;;;;;;12.90;72.80;;;;;;4957150;29;19944;-81
2023/12/05 03:17:19;;;;;;;;;;;12.80;72.70;;;;;;4958602;29;20005;-80
2023/12/05 03:19:45;;;;;;;;;;;12.90;72.80;;;;;;4956937;28;19913;-79
2023/12/05 03:22:10;;;;;;;;;;;12.90;72.80;;;;;;4958248;29;19906;-81
2023/12/05 03:24:35;;;;;;;;;;;12.90;72.80;;;;;;4957142;29;20367;-81
2023/12/05 03:27:01;;;;;;;;;;;12.90;72.80;;;;;;4957069;29;19917;-80
2023/12/05 03:29:26;;;;;;;;;;;12.90;72.90;;;;;;4956838;29;19906;-80
2023/12/05 03:31:52;;;;;;;;;;;12.90;72.90;;;;;;4956775;28;19993;-81
2023/12/05 03:34:17;;;;;;;;;;;12.90;72.90;;;;;;4956728;29;20054;-81
2023/12/05 03:36:42;;;;;;;;;;;12.90;73.00;;;;;;4956731;29;19906;-81
2023/12/05 03:39:08;;;;;;;;;;;12.90;73.00;;;;;;4956542;29;19910;-80
2023/12/05 03:41:34;;;;;;;;;;;12.90;73.00;;;;;;4957827;28;19933;-80
2023/12/05 03:43:59;;;;;;;;;;;12.90;72.90;;;;;;4956625;29;19914;-81
2023/12/05 03:46:24;;;;;;;;;;;12.90;72.90;;;;;;4956585;29;19914;-81
2023/12/05 03:48:50;;;;;;;;;;;12.90;72.90;;;;;;4956311;29;19957;-80
2023/12/05 03:51:15;;;;;;;;;;;12.90;73.00;;;;;;4956425;28;20371;-81
2023/12/05 03:53:41;;;;;;;;;;;12.90;73.00;;;;;;4956309;29;20016;-80
2023/12/05 03:56:06;;;;;;;;;;;12.90;73.00;;;;;;4955313;29;19906;-80
2023/12/05 03:58:32;;;;;;;;;;;12.90;73.00;;;;;;4956326;29;19906;-80
2023/12/05 04:00:57;;;;;;;;;;;12.90;73.10;;;;;;4956317;28;20287;-81
2023/12/05 04:03:22;;;;;;;;;;;12.90;73.10;;;;;;4956239;29;20360;-80
2023/12/05 04:05:48;;;;;;;;;;;12.90;73.00;;;;;;4956317;29;19906;-81
2023/12/05 04:08:13;;;;;;;;;;;12.90;73.10;;;;;;4956164;29;19910;-79
2023/12/05 04:10:39;;;;;;;;;;;12.90;73.10;;;;;;4956114;28;19906;-81
2023/12/05 04:13:04;;;;;;;;;;;12.90;73.10;;;;;;4956189;29;19910;-80
2023/12/05 04:15:30;;;;;;;;;;;12.80;73.10;;;;;;4956947;28;19933;-81
2023/12/05 04:17:55;;;;;;;;;;;12.90;73.20;;;;;;4957179;29;20355;-79
2023/12/05 04:20:21;;;;;;;;;;;12.90;73.20;;;;;;4939883;29;20462;-81
2023/12/05 04:22:46;;;;;;;;;;;12.90;73.30;;;;;;4939803;29;19906;-81
2023/12/05 04:25:12;;;;;;;;;;;12.90;73.30;;;;;;4939919;29;19913;-81
2023/12/05 04:27:37;;;;;;;;;;;12.80;73.30;;;;;;4952852;28;20286;-81
2023/12/05 04:30:03;;;;;;;;;;;12.80;73.20;;;;;;4958032;28;19961;-81
2023/12/05 04:32:29;;;;;;;;;;;12.90;73.30;;;;;;4955726;28;19914;-81
2023/12/05 04:34:54;;;;;;;;;;;12.80;73.20;;;;;;4952493;28;19921;-81
2023/12/05 04:37:20;;;;;;;;;;;12.90;73.30;;;;;;4955613;28;20453;-81
2023/12/05 04:39:45;;;;;;;;;;;12.80;73.20;;;;;;4955395;28;19914;-81
2023/12/05 04:42:11;;;;;;;;;;;12.90;73.30;;;;;;4955447;28;20012;-81
2023/12/05 04:44:36;;;;;;;;;;;12.80;73.30;;;;;;4972686;28;20390;-82
2023/12/05 04:47:03;;;;;;;;;;;12.80;73.30;;;;;;4955511;28;19910;-80
2023/12/05 04:49:29;;;;;;;;;;;12.80;73.30;;;;;;4954856;28;20611;-79
2023/12/05 04:51:54;;;;;;;;;;;12.90;73.40;;;;;;4954132;28;20041;-81
2023/12/05 04:54:20;;;;;;;;;;;12.90;73.40;;;;;;4955056;28;19914;-79
2023/12/05 04:56:45;;;;;;;;;;;12.80;73.40;;;;;;4954967;28;19918;-80
2023/12/05 04:59:11;;;;;;;;;;;12.80;73.40;;;;;;4954969;28;19957;-81
2023/12/05 05:01:36;;;;;;;;;;;12.80;73.40;;;;;;4954714;28;20004;-81
2023/12/05 05:04:01;;;;;;;;;;;12.80;73.40;;;;;;4955215;28;19917;-80
2023/12/05 05:06:27;;;;;;;;;;;12.80;73.50;;;;;;4955216;28;19906;-81
2023/12/05 05:08:53;;;;;;;;;;;12.80;73.40;;;;;;4954918;28;19906;-81
2023/12/05 05:11:18;;;;;;;;;;;12.80;73.50;;;;;;4955547;28;19906;-81
2023/12/05 05:13:44;;;;;;;;;;;12.80;73.50;;;;;;4955172;28;19910;-80
2023/12/05 05:16:10;;;;;;;;;;;12.80;73.50;;;;;;4955436;28;20401;-79
2023/12/05 05:18:37;;;;;;;;;;;12.80;73.50;;;;;;4954823;28;19965;-81
2023/12/05 05:21:04;;;;;;;;;;;12.80;73.50;;;;;;4954642;28;19972;-81
2023/12/05 05:23:30;;;;;;;;;;;12.80;73.50;;;;;;4954891;28;19910;-81
2023/12/05 05:25:55;;;;;;;;;;;12.80;73.60;;;;;;4954127;28;20283;-80
2023/12/05 05:28:21;;;;;;;;;;;12.80;73.50;;;;;;4970894;28;19957;-81
2023/12/05 05:30:46;;;;;;;;;;;12.80;73.60;;;;;;4954488;28;20021;-80
2023/12/05 05:33:12;;;;;;;;;;;12.80;73.60;;;;;;4954148;28;19910;-81
2023/12/05 05:35:37;;;;;;;;;;;12.80;73.60;;;;;;4954460;28;19914;-79
2023/12/05 05:38:02;;;;;;;;;;;12.80;73.60;;;;;;4954369;28;20509;-80
2023/12/05 05:40:28;;;;;;;;;;;12.80;73.60;;;;;;4954247;28;19990;-81
2023/12/05 05:42:53;;;;;;;;;;;12.80;73.70;;;;;;4971412;28;19914;-81
2023/12/05 05:45:19;;;;;;;;;;;12.80;73.70;;;;;;4971684;28;20430;-82
2023/12/05 05:47:44;;;;;;;;;;;12.80;73.70;;;;;;4954047;28;19910;-80
2023/12/05 05:50:11;;;;;;;;;;;12.80;73.70;;;;;;4953971;28;19953;-81
2023/12/05 05:52:37;;;;;;;;;;;12.80;73.80;;;;;;4971219;28;20008;-80
2023/12/05 05:55:03;;;;;;;;;;;12.80;73.80;;;;;;4954072;28;20017;-80
2023/12/05 05:57:28;;;;;;;;;;;12.70;73.80;;;;;;4951025;28;19910;-79
2023/12/05 05:59:54;;;;;;;;;;;12.70;73.80;;;;;;4953365;28;19906;-81
2023/12/05 06:02:19;;;;;;;;;;;12.80;73.90;;;;;;4953853;28;19960;-81
2023/12/05 06:04:44;;;;;;;;;;;12.80;73.90;;;;;;4953923;28;20600;-81
2023/12/05 06:07:10;;;;;;;;;;;12.70;73.90;;;;;;4953808;28;20073;-81
2023/12/05 06:09:35;;;;;;;;;;;12.70;73.90;;;;;;4953111;28;19949;-80
2023/12/05 06:12:02;;;;;;;;;;;12.70;73.80;;;;;;4950420;29;19922;-82
2023/12/05 06:14:28;;;;;;;;;;;12.80;73.90;;;;;;4934769;29;20370;-79
2023/12/05 06:16:53;;;;;;;;;;;12.80;73.90;;;;;;4934740;29;19910;-81
2023/12/05 06:19:18;;;;;;;;;;;12.80;74.00;;;;;;4951821;29;20290;-81
2023/12/05 06:21:44;;;;;;;;;;;12.70;73.90;;;;;;4934527;29;20405;-81
2023/12/05 06:24:10;;;;;;;;;;;12.80;73.90;;;;;;4934255;29;19973;-80
2023/12/05 06:26:36;;;;;;;;;;;12.80;73.90;;;;;;4934685;29;20005;-82
2023/12/05 06:29:03;;;;;;;;;;;12.70;73.90;;;;;;4951008;29;20009;-81
2023/12/05 06:31:29;;;;;;;;;;;12.70;73.90;;;;;;4934800;29;19917;-81
2023/12/05 06:33:54;;;;;;;;;;;12.70;73.90;;;;;;4933986;29;19914;-82
2023/12/05 06:36:20;;;;;;;;;;;12.80;74.00;;;;;;4934559;29;19922;-81
2023/12/05 06:38:45;;;;;;;;;;;12.70;74.00;;;;;;4934277;29;19910;-79
2023/12/05 06:41:11;;;;;;;;;;;12.70;74.00;;;;;;4951785;28;19911;-81
2023/12/05 06:43:36;;;;;;;;;;;12.70;74.10;;;;;;4934434;29;19918;-79
2023/12/05 06:46:02;;;;;;;;;;;12.70;74.10;;;;;;4934267;29;19933;-80
2023/12/05 06:48:27;;;;;;;;;;;12.70;74.10;;;;;;4933945;29;20295;-82
2023/12/05 06:50:53;;;;;;;;;;;12.70;74.10;;;;;;4950044;28;20287;-80
2023/12/05 06:53:18;;;;;;;;;;;12.60;74.10;;;;;;4934220;29;20344;-81
2023/12/05 06:55:46;;;;;;;;;;;12.70;74.10;;;;;;4951181;29;19937;-81
2023/12/05 06:58:12;;;;;;;;;;;12.70;74.10;;;;;;4934163;29;20417;-80
2023/12/05 07:00:37;;;;;;;;;;;12.70;74.10;;;;;;4951370;28;19919;-81
2023/12/05 07:03:03;;;;;;;;;;;12.70;74.10;;;;;;4951515;29;19910;-82
2023/12/05 07:05:29;;;;;;;;;;;12.70;74.10;;;;;;4934211;29;19910;-81
2023/12/05 07:07:54;;;;;;;;;;;13.00;74.30;;;;;;4950241;29;19910;-81
2023/12/05 07:10:19;;;;;;;;;;;12.70;74.20;;;;;;4951092;28;20296;-81
2023/12/05 07:12:45;;;;;;;;;;;12.70;74.20;;;;;;4934196;29;19918;-81
2023/12/05 07:15:10;;;;;;;;;;;12.70;74.20;;;;;;4934237;29;20360;-80
2023/12/05 07:17:36;;;;;;;;;;;12.70;74.20;;;;;;4950294;29;19906;-81
2023/12/05 07:20:02;;;;;;;;;;;12.70;74.20;;;;;;4949814;28;19922;-80
2023/12/05 07:22:27;;;;;;;;;;;12.70;74.20;;;;;;4934020;29;19910;-81
2023/12/05 07:24:53;;;;;;;;;;;12.70;74.30;;;;;;4951365;29;20298;-79
2023/12/05 07:27:18;;;;;;;;;;;12.70;74.20;;;;;;4934318;29;19914;-80
2023/12/05 07:29:43;;;;;;;;;;;12.70;74.20;;;;;;4951211;29;20390;-81
2023/12/05 07:32:09;;;;;;;;;;;12.70;74.20;;;;;;4933858;29;19989;-81
2023/12/05 07:34:34;;;;;;;;;;;12.60;74.20;;;;;;4933966;29;19915;-81
2023/12/05 07:37:00;;;;;;;;;;;12.70;74.30;;;;;;4951485;29;19910;-80
2023/12/05 07:39:26;;;;;;;;;;;12.60;74.20;;;;;;4951011;29;19910;-79
2023/12/05 07:41:51;;;;;;;;;;;12.60;74.30;;;;;;4933819;29;20264;-80
2023/12/05 07:44:17;;;;;;;;;;;12.70;74.30;;;;;;4933730;29;19921;-81
2023/12/05 07:46:43;;;;;;;;;;;12.70;74.30;;;;;;4950850;29;19910;-80
2023/12/05 07:49:09;;;;;;;;;;;12.70;74.30;;;;;;4951318;29;19958;-81
2023/12/05 07:51:34;;;;;;;;;;;12.60;74.30;;;;;;4936166;29;19910;-80
2023/12/05 07:53:59;;;;;;;;;;;12.70;74.40;;;;;;4954729;29;19921;-81
2023/12/05 07:56:25;;;;;;;;;;;12.60;74.30;;;;;;4937240;29;19911;-82
2023/12/05 07:58:50;;;;;;;;;;;12.60;74.30;;;;;;4953225;29;19906;-79
2023/12/05 08:01:16;;;;;;;;;;;12.60;74.30;;;;;;4937308;29;19910;-81
2023/12/05 08:03:41;;;;;;;;;;;12.60;74.40;;;;;;4937166;29;20425;-80
2023/12/05 08:06:07;;;;;;;;;;;12.60;74.40;;;;;;4937136;29;19907;-80
2023/12/05 08:08:35;;;;;;;;;;;12.60;74.40;;;;;;4938019;28;20346;-82
2023/12/05 08:11:02;;;;;;;;;;;12.60;74.40;;;;;;4955947;28;20351;-81
2023/12/05 08:13:27;;;;;;;;;;;12.60;74.40;;;;;;4956055;28;19913;-81
2023/12/05 08:15:53;;;;;;;;;;;12.60;74.40;;;;;;4956284;28;19914;-81
2023/12/05 08:18:19;;;;;;;;;;;12.60;74.50;;;;;;4973246;28;20390;-81
2023/12/05 08:20:44;;;;;;;;;;;12.60;74.40;;;;;;4956342;28;19913;-82
2023/12/05 08:23:10;;;;;;;;;;;12.60;74.50;;;;;;4955926;28;20399;-82
2023/12/05 08:25:35;;;;;;;;;;;12.60;74.50;;;;;;4973303;28;20287;-81
2023/12/05 08:28:01;;;;;;;;;;;12.60;74.50;;;;;;4956000;28;20199;-80
2023/12/05 08:30:26;;;;;;;;;;;12.60;74.50;;;;;;4955923;28;19957;-81
2023/12/05 08:32:52;;;;;;;;;;;12.60;74.50;;;;;;4955725;28;19918;-80
2023/12/05 08:35:17;;;;;;;;;;;12.60;74.50;;;;;;4955711;28;19995;-81
2023/12/05 08:37:43;;;;;;;;;;;12.60;74.50;;;;;;4955597;28;20394;-80
2023/12/05 08:40:08;;;;;;;;;;;12.60;74.60;;;;;;4972755;28;20555;-81
2023/12/05 08:42:34;;;;;;;;;;;12.60;74.60;;;;;;4955588;28;19974;-82
2023/12/05 08:45:00;;;;;;;;;;;12.60;74.60;;;;;;4955939;28;19910;-81
2023/12/05 08:47:26;;;;;;;;;;;12.60;74.60;;;;;;4955811;28;19913;-81
2023/12/05 08:49:51;;;;;;;;;;;12.60;74.60;;;;;;4972448;28;19910;-80
2023/12/05 08:52:17;;;;;;;;;;;12.60;74.60;;;;;;4972866;28;19906;-79
2023/12/05 08:54:42;;;;;;;;;;;12.60;74.60;;;;;;4954794;28;19910;-79
2023/12/05 08:57:07;;;;;;;;;;;12.60;74.70;;;;;;4955247;28;19906;-80
2023/12/05 08:59:33;;;;;;;;;;;12.60;74.70;;;;;;4955287;28;19916;-80
2023/12/05 09:01:59;;;;;;;;;;;12.60;74.70;;;;;;4971361;28;19918;-80
2023/12/05 09:04:24;;;;;;;;;;;12.60;74.70;;;;;;4954870;28;19910;-79
2023/12/05 09:06:49;;;;;;;;;;;12.60;74.70;;;;;;4956197;28;19960;-80
2023/12/05 09:09:16;;;;;;;;;;;12.60;74.60;;;;;;4954992;28;19948;-81
2023/12/05 09:11:42;;;;;;;;;;;12.60;74.60;;;;;;4954709;28;20458;-79
2023/12/05 09:14:07;;;;;;;;;;;12.50;71.90;;;;;;4955003;28;20009;-81
2023/12/05 09:16:33;;;;;;;;;;;12.50;71.50;;;;;;4955071;28;19906;-80
2023/12/05 09:18:58;;;;;;;;;;;12.50;72.40;;;;;;4954695;28;19910;-79
2023/12/05 09:21:24;;;;;;;;;;;12.40;72.80;;;;;;4954444;28;19913;-80
2023/12/05 09:23:49;;;;;;;;;;;12.50;73.30;;;;;;4954901;28;19956;-80
2023/12/05 09:26:15;;;;;;;;;;;12.50;73.40;;;;;;4954967;28;19910;-79
2023/12/05 09:28:40;;;;;;;;;;;12.50;73.50;;;;;;4957119;28;19913;-80
2023/12/05 09:31:06;;;;;;;;;;;12.50;73.70;;;;;;4957904;28;19942;-81
2023/12/05 09:33:31;;;;;;;;;;;12.50;73.70;;;;;;4957853;28;19913;-80
2023/12/05 09:35:56;;;;;;;;;;;12.50;73.80;;;;;;4957869;28;20386;-81
2023/12/05 09:38:22;;;;;;;;;;;12.60;73.90;;;;;;4957705;28;19932;-80
2023/12/05 09:40:48;;;;;;;;;;;12.50;73.90;;;;;;4957675;28;19906;-80
2023/12/05 09:43:14;;;;;;;;;;;12.60;74.00;;;;;;4974975;28;19961;-81
2023/12/05 09:45:43;;;;;;;;;;;12.60;74.10;;;;;;4974939;28;19906;-80
2023/12/05 09:48:10;;;;;;;;;;;12.60;74.10;;;;;;4957522;28;19950;-80
2023/12/05 09:50:36;;;;;;;;;;;12.60;74.10;;;;;;4957452;28;19906;-80
2023/12/05 09:53:02;;;;;;;;;;;12.60;74.10;;;;;;4974754;28;20021;-81
2023/12/05 09:55:27;;;;;;;;;;;12.60;74.70;;;;;;4957637;28;19974;-81
2023/12/05 09:57:55;;;;;;;;;;;12.60;74.20;;;;;;4957758;28;19921;-80
2023/12/05 10:00:21;;;;;;;;;;;12.60;74.20;;;;;;4957311;28;19938;-81
2023/12/05 10:02:46;;;;;;;;;;;12.50;74.20;;;;;;4957520;28;19964;-80
2023/12/05 10:05:14;;;;;;;;;;;12.60;74.30;;;;;;4957391;28;19937;-80
2023/12/05 10:07:40;;;;;;;;;;;12.60;74.30;;;;;;4957283;28;20355;-80
2023/12/05 10:10:06;;;;;;;;;;;12.60;74.30;;;;;;4957092;28;19906;-81
2023/12/05 10:12:32;;;;;;;;;;;12.50;74.40;;;;;;4957226;28;19910;-81
2023/12/05 10:14:58;;;;;;;;;;;12.40;72.90;;;;;;4974474;28;19967;-81
2023/12/05 10:17:25;;;;;;;;;;;12.40;72.00;;;;;;4974554;28;19906;-80
2023/12/05 10:19:51;;;;;;;;;;;12.40;71.80;;;;;;4957091;28;20316;-81
2023/12/05 10:22:16;;;;;;;;;;;12.40;71.40;;;;;;4957216;28;19948;-81
2023/12/05 10:24:42;;;;;;;;;;;12.40;71.10;;;;;;4957245;28;19910;-81
2023/12/05 10:27:08;;;;;;;;;;;12.30;70.80;;;;;;4957179;28;20359;-81
2023/12/05 10:29:36;;;;;;;;;;;12.40;70.60;;;;;;4957174;28;19913;-81
2023/12/05 10:32:01;;;;;;;;;;;12.40;71.00;;;;;;4957045;28;19929;-79
2023/12/05 10:34:27;;;;;;;;;;;12.40;70.70;;;;;;4957245;28;20367;-79
2023/12/05 10:37:03;;;;;;;;;;;12.50;71.20;;;;;;4976945;28;19906;-80
2023/12/05 10:39:35;;;;;;;;;;;12.50;71.60;;;;;;4959068;28;20378;-80
2023/12/05 10:42:00;;;;;;;;;;;12.50;71.70;;;;;;4957254;28;19925;-80
2023/12/05 10:44:26;;;;;;;;;;;12.50;71.80;;;;;;4956782;28;20326;-79
2023/12/05 10:46:55;;;;;;;;;;;12.50;72.00;;;;;;4974300;28;20297;-79
2023/12/05 10:49:21;;;;;;;;;;;12.50;72.10;;;;;;4954870;28;19914;-80
2023/12/05 10:51:47;;;;;;;;;;;12.60;72.30;;;;;;4955952;28;19906;-79
2023/12/05 10:54:12;;;;;;;;;;;12.50;72.30;;;;;;4973831;28;19916;-79
2023/12/05 10:56:38;;;;;;;;;;;12.50;72.40;;;;;;4956825;28;19912;-79
2023/12/05 10:59:04;;;;;;;;;;;12.60;72.60;;;;;;4956575;28;20314;-79
2023/12/05 11:01:30;;;;;;;;;;;12.50;72.50;;;;;;4956746;28;19913;-80
2023/12/05 11:04:00;;;;;;;;;;;12.50;72.60;;;;;;4956759;28;19906;-79
2023/12/05 11:06:27;;;;;;;;;;;12.60;72.70;;;;;;4973903;28;19906;-79
2023/12/05 11:08:53;;;;;;;;;;;12.50;72.70;;;;;;4956248;28;20363;-79
2023/12/05 11:11:18;;;;;;;;;;;12.60;72.80;;;;;;4956482;28;19957;-79
2023/12/05 11:13:45;;;;;;;;;;;12.60;72.80;;;;;;4956578;28;19992;-80
2023/12/05 11:16:15;;;;;;;;;;;12.60;73.50;;;;;;4956612;28;20401;-80
2023/12/05 11:18:43;;;;;;;;;;;12.60;72.90;;;;;;4973589;28;20009;-80
2023/12/05 11:21:08;;;;;;;;;;;12.60;72.90;;;;;;4956402;28;20442;-78
2023/12/05 11:23:37;;;;;;;;;;;12.60;73.00;;;;;;4974052;28;19941;-79
2023/12/05 11:26:29;;;;;;;;;;;12.60;72.90;;;;;;4958191;28;20404;-80
2023/12/05 11:29:09;;;;;;;;;;;12.60;73.00;;;;;;4954521;28;20408;-79
2023/12/05 11:31:49;;;;;;;;;;;12.60;73.00;;;;;;4977710;28;20254;-79
2023/12/05 11:34:22;;;;;;;;;;;12.70;73.10;;;;;;4960113;28;19910;-79
2023/12/05 11:36:54;;;;;;;;;;;12.70;73.10;;;;;;4959900;28;19906;-78
2023/12/05 11:39:20;;;;;;;;;;;12.70;73.10;;;;;;4959721;28;20286;-79
2023/12/05 11:42:04;;;;;;;;;;;12.70;73.10;;;;;;4959986;28;19910;-79
2023/12/05 11:44:34;;;;;;;;;;;12.70;73.20;;;;;;4959873;28;19917;-79
2023/12/05 11:47:01;;;;;;;;;;;12.70;73.20;;;;;;4959875;28;19906;-79
2023/12/05 11:49:30;;;;;;;;;;;12.70;73.20;;;;;;4959711;28;19906;-78
2023/12/05 11:52:06;;;;;;;;;;;12.70;73.20;;;;;;4977009;28;19906;-79
2023/12/05 11:54:32;;;;;;;;;;;12.60;73.20;;;;;;4959748;28;20065;-79
2023/12/05 11:57:13;;;;;;;;;;;12.70;73.20;;;;;;4959811;28;19950;-78
2023/12/05 11:59:40;;;;;;;;;;;12.70;73.30;;;;;;4959421;28;19913;-79
2023/12/05 12:02:06;;;;;;;;;;;12.70;73.30;;;;;;4959634;28;20367;-79
2023/12/05 12:04:32;;;;;;;;;;;12.70;73.30;;;;;;4976961;28;19914;-79
2023/12/05 12:06:57;;;;;;;;;;;12.70;73.20;;;;;;4959484;28;19906;-79
2023/12/05 12:09:23;;;;;;;;;;;12.70;73.30;;;;;;4959096;28;20298;-79
2023/12/05 12:11:49;;;;;;;;;;;12.70;73.30;;;;;;4959436;28;20386;-78
2023/12/05 12:14:15;;;;;;;;;;;12.70;73.40;;;;;;4959172;28;19910;-79
2023/12/05 12:16:41;;;;;;;;;;;12.70;73.40;;;;;;4959433;28;19913;-80
2023/12/05 12:19:11;;;;;;;;;;;12.70;73.40;;;;;;4976371;28;20294;-78
2023/12/05 12:21:40;;;;;;;;;;;12.80;73.90;;;;;;4959403;28;19961;-79
2023/12/05 12:24:06;;;;;;;;;;;12.70;73.40;;;;;;4959246;28;19913;-78
2023/12/05 12:26:32;;;;;;;;;;;12.70;73.40;;;;;;4959194;28;19914;-79
2023/12/05 12:29:11;;;;;;;;;;;12.70;73.40;;;;;;4959000;28;19906;-79
2023/12/05 12:31:37;;;;;;;;;;;12.70;73.40;;;;;;4958783;28;20704;-79
2023/12/05 12:34:07;;;;;;;;;;;12.70;73.40;;;;;;4958834;28;19917;-80
2023/12/05 12:36:34;;;;;;;;;;;12.70;73.50;;;;;;4976068;28;19988;-79
2023/12/05 12:39:00;;;;;;;;;;;12.70;73.50;;;;;;4959048;28;19949;-79
2023/12/05 12:41:28;;;;;;;;;;;12.80;73.60;;;;;;4958688;28;19937;-79
2023/12/05 12:43:53;;;;;;;;;;;12.70;73.50;;;;;;4958912;28;20290;-79
2023/12/05 12:46:19;;;;;;;;;;;12.80;73.60;;;;;;4976052;28;19906;-78
2023/12/05 12:48:44;;;;;;;;;;;12.70;73.50;;;;;;4958560;28;19906;-79
2023/12/05 12:51:11;;;;;;;;;;;12.80;73.60;;;;;;4958626;28;19906;-79
2023/12/05 12:53:36;;;;;;;;;;;12.70;73.60;;;;;;4958778;28;19917;-79
2023/12/05 12:56:06;;;;;;;;;;;12.70;73.60;;;;;;4958668;28;19909;-79
2023/12/05 12:58:32;;;;;;;;;;;12.70;73.60;;;;;;4958432;28;19906;-79
2023/12/05 13:00:58;;;;;;;;;;;12.70;73.60;;;;;;4958550;28;19906;-79
2023/12/05 13:03:23;;;;;;;;;;;12.70;73.60;;;;;;4958351;28;19913;-78
2023/12/05 13:05:48;;;;;;;;;;;12.70;73.60;;;;;;4958407;28;19913;-79
2023/12/05 13:08:14;;;;;;;;;;;12.70;73.60;;;;;;4958508;28;19906;-78
2023/12/05 13:10:41;;;;;;;;;;;12.80;73.70;;;;;;4958384;28;20012;-79
2023/12/05 13:13:06;;;;;;;;;;;12.80;73.80;;;;;;4975498;28;19972;-79
2023/12/05 13:15:32;;;;;;;;;;;12.70;73.70;;;;;;4975899;28;20402;-80
2023/12/05 13:18:04;;;;;;;;;;;12.70;73.70;;;;;;4958284;28;20399;-79
2023/12/05 13:20:30;;;;;;;;;;;12.70;74.20;;;;;;4957890;28;20377;-77
2023/12/05 13:22:56;;;;;;;;;;;12.80;73.80;;;;;;4958204;28;19906;-79
2023/12/05 13:25:22;;;;;;;;;;;12.80;73.80;;;;;;4958215;28;19906;-79
2023/12/05 13:27:48;;;;;;;;;;;12.80;73.80;;;;;;4957997;28;19913;-79
2023/12/05 13:30:15;;;;;;;;;;;12.80;73.80;;;;;;4957574;28;20001;-78
2023/12/05 13:32:41;;;;;;;;;;;12.80;73.80;;;;;;4975290;28;19906;-78
2023/12/05 13:35:08;;;;;;;;;;;12.80;73.80;;;;;;4958131;28;19912;-78
2023/12/05 13:37:34;;;;;;;;;;;12.80;73.80;;;;;;4975474;28;20290;-79
2023/12/05 13:39:59;;;;;;;;;;;12.80;73.80;;;;;;4957667;28;19906;-78
2023/12/05 13:42:24;;;;;;;;;;;12.80;73.80;;;;;;4957833;28;19910;-79
2023/12/05 13:44:50;;;;;;;;;;;12.80;73.80;;;;;;4957891;28;20326;-78
2023/12/05 13:47:15;;;;;;;;;;;12.80;73.80;;;;;;4957962;28;19910;-78
2023/12/05 13:49:41;;;;;;;;;;;12.70;73.70;;;;;;4974299;28;19957;-78
2023/12/05 13:52:06;;;;;;;;;;;12.80;73.80;;;;;;4957592;28;19957;-78
2023/12/05 13:54:31;;;;;;;;;;;12.80;73.80;;;;;;4957556;28;19960;-78
2023/12/05 13:56:57;;;;;;;;;;;12.80;73.80;;;;;;4957146;28;20430;-79
2023/12/05 13:59:22;;;;;;;;;;;12.80;73.80;;;;;;4957065;28;19956;-78
2023/12/05 14:01:48;;;;;;;;;;;12.80;74.30;;;;;;4957355;28;20366;-78
2023/12/05 14:04:16;;;;;;;;;;;12.80;73.70;;;;;;4974997;28;19906;-79
2023/12/05 14:06:42;;;;;;;;;;;12.80;73.80;;;;;;4957451;28;19969;-78
2023/12/05 14:09:08;;;;;;;;;;;12.90;73.80;;;;;;4952837;28;19910;-78
2023/12/05 14:11:33;;;;;;;;;;;12.80;73.80;;;;;;4957314;28;19944;-78